| time (UTC) | temp F | wind direction | speed MPH | gust MPH | rain 1hr in | rain 24hr in | rain mn in | humidity % | barometer mb |
| 20260505165534 | 38 | 141 | 4.0 | 9.0 | 0.00 | 0.04 | 0.00 | 88 | 1015.0 |
| 20260505164530 | 38 | 114 | 4.0 | 6.0 | 0.00 | 0.04 | 0.00 | 88 | 1015.2 |
| 20260505163546 | 38 | 127 | 3.0 | 6.0 | 0.00 | 0.04 | 0.00 | 87 | 1014.8 |
| 20260505162522 | 39 | 33 | 3.0 | 6.0 | 0.00 | 0.04 | 0.00 | 86 | 1015.0 |
| 20260505161538 | 39 | 59 | 2.0 | 6.0 | 0.00 | 0.04 | 0.00 | 85 | 1014.9 |
| 20260505160534 | 39 | 41 | 2.0 | 8.0 | 0.00 | 0.04 | 0.00 | 85 | 1015.0 |
| 20260505152519 | 39 | 13 | 3.0 | 6.0 | 0.00 | 0.04 | 0.00 | 83 | 1015.0 |
| 20260505151535 | 40 | 50 | 3.0 | 7.0 | 0.00 | 0.04 | 0.00 | 81 | 1015.0 |
| 20260505150551 | 41 | 75 | 3.0 | 6.0 | 0.00 | 0.04 | 0.00 | 80 | 1015.0 |
| 20260505140547 | 42 | 130 | 3.0 | 10.0 | 0.00 | 0.04 | 0.00 | 80 | 1014.9 |
| 20260505124536 | 44 | 152 | 4.0 | 7.0 | 0.00 | 0.04 | 0.00 | 78 | 1013.8 |
| 20260505123632 | 44 | 155 | 3.0 | 6.0 | 0.00 | 0.04 | 0.00 | 78 | 1013.7 |
| 20260505122608 | 44 | 88 | 1.0 | 3.0 | 0.00 | 0.04 | 0.00 | 78 | 1013.6 |
| 20260505121524 | 44 | 75 | 4.0 | 6.0 | 0.00 | 0.04 | 0.00 | 77 | 1013.2 |
| 20260505120521 | 44 | 33 | 3.0 | 6.0 | 0.00 | 0.04 | 0.00 | 76 | 1013.2 |
| 20260505115556 | 45 | 137 | 3.0 | 5.0 | 0.00 | 0.04 | 0.00 | 75 | 1013.0 |
| 20260505114533 | 45 | 183 | 3.0 | 6.0 | 0.00 | 0.04 | 0.00 | 74 | 1012.9 |
| 20260505113529 | 45 | 154 | 3.0 | 6.0 | 0.00 | 0.04 | 0.00 | 74 | 1012.9 |
| 20260505112525 | 45 | 125 | 5.0 | 9.0 | 0.00 | 0.04 | 0.00 | 74 | 1012.8 |
| 20260505111521 | 45 | 134 | 3.0 | 6.0 | 0.00 | 0.04 | 0.00 | 75 | 1012.6 |
| 20260505110517 | 45 | 131 | 3.0 | 4.0 | 0.00 | 0.04 | 0.00 | 78 | 1012.7 |
| 20260505101518 | 44 | 136 | 2.0 | 3.0 | 0.00 | 0.04 | 0.00 | 89 | 1012.7 |
| 20260505100535 | 44 | 145 | 1.0 | 3.0 | 0.00 | 0.04 | 0.00 | 90 | 1012.6 |
| 20260505095531 | 43 | 130 | 1.0 | 2.0 | 0.00 | 0.04 | 0.00 | 90 | 1012.7 |
| 20260505094527 | 44 | 125 | 1.0 | 2.0 | 0.00 | 0.04 | 0.00 | 88 | 1012.7 |
| 20260505093523 | 44 | 111 | 1.0 | 2.0 | 0.00 | 0.04 | 0.00 | 88 | 1012.8 |
| 20260505092519 | 45 | 156 | 1.0 | 2.0 | 0.00 | 0.04 | 0.00 | 87 | 1012.6 |
| 20260505091515 | 45 | 122 | 1.0 | 2.0 | 0.00 | 0.04 | 0.00 | 86 | 1012.7 |
| 20260505090551 | 46 | 133 | 1.0 | 2.0 | 0.00 | 0.04 | 0.00 | 85 | 1012.7 |
| 20260505085528 | 46 | 124 | 1.0 | 2.0 | 0.00 | 0.04 | 0.00 | 85 | 1013.0 |
| 20260505084523 | 46 | 128 | 1.0 | 2.0 | 0.00 | 0.04 | 0.00 | 84 | 1013.2 |
| 20260505083519 | 46 | 0.0 | 1.0 | 0.00 | 0.04 | 0.00 | 84 | 1013.1 | |
| 20260505082516 | 46 | 117 | 1.0 | 2.0 | 0.00 | 0.04 | 0.00 | 83 | 1013.3 |
| 20260505081532 | 47 | 125 | 0.0 | 2.0 | 0.00 | 0.04 | 0.00 | 82 | 1013.3 |
| 20260505080528 | 47 | 108 | 1.0 | 2.0 | 0.00 | 0.04 | 0.00 | 82 | 1013.5 |
| 20260505075524 | 47 | 85 | 1.0 | 2.0 | 0.00 | 0.04 | 0.00 | 81 | 1013.3 |
| 20260505074520 | 47 | 108 | 1.0 | 3.0 | 0.00 | 0.04 | 0.00 | 82 | 1013.6 |
| 20260505073516 | 47 | 84 | 1.0 | 2.0 | 0.00 | 0.04 | 0.00 | 83 | 1013.6 |
| 20260505072553 | 47 | 145 | 1.0 | 2.0 | 0.00 | 0.04 | 0.00 | 83 | 1013.7 |
| 20260505071529 | 47 | 121 | 1.0 | 2.0 | 0.00 | 0.04 | 0.00 | 83 | 1013.5 |
| 20260505070525 | 47 | 100 | 0.0 | 2.0 | 0.00 | 0.04 | 0.00 | 82 | 1013.6 |
| 20260505065521 | 47 | 97 | 1.0 | 2.0 | 0.01 | 0.04 | 0.00 | 83 | 1013.6 |
| 20260505064517 | 47 | 150 | 1.0 | 2.0 | 0.01 | 0.04 | 0.00 | 83 | 1013.6 |
| 20260505063533 | 47 | 138 | 0.0 | 2.0 | 0.01 | 0.04 | 0.00 | 83 | 1013.6 |
| 20260505062549 | 47 | 142 | 1.0 | 2.0 | 0.01 | 0.04 | 0.00 | 83 | 1013.7 |
| 20260505061525 | 48 | 150 | 0.0 | 2.0 | 0.01 | 0.04 | 0.00 | 82 | 1013.6 |
| 20260505060522 | 49 | 154 | 0.0 | 2.0 | 0.00 | 0.04 | 0.00 | 79 | 1013.7 |
| 20260505055518 | 49 | 116 | 0.0 | 2.0 | 0.00 | 0.03 | 0.03 | 74 | 1014.0 |
| 20260505054554 | 50 | 134 | 1.0 | 2.0 | 0.00 | 0.03 | 0.03 | 70 | 1014.0 |
| 20260505053530 | 50 | 52 | 1.0 | 3.0 | 0.00 | 0.03 | 0.03 | 69 | 1013.9 |
| 20260505052526 | 50 | 62 | 1.0 | 5.0 | 0.00 | 0.03 | 0.03 | 68 | 1013.8 |
| 20260505051522 | 50 | 63 | 1.0 | 3.0 | 0.00 | 0.03 | 0.03 | 68 | 1013.7 |
| 20260505050519 | 50 | 40 | 2.0 | 4.0 | 0.00 | 0.03 | 0.03 | 67 | 1013.7 |
| 20260505041519 | 50 | 18 | 1.0 | 2.0 | 0.00 | 0.03 | 0.03 | 67 | 1013.3 |
| 20260505040515 | 50 | 64 | 1.0 | 3.0 | 0.00 | 0.03 | 0.03 | 66 | 1013.2 |
| 20260505035531 | 50 | 133 | 1.0 | 4.0 | 0.00 | 0.03 | 0.03 | 66 | 1013.1 |
| 20260505034527 | 50 | 95 | 1.0 | 4.0 | 0.00 | 0.03 | 0.03 | 66 | 1013.0 |
| 20260505033523 | 51 | 66 | 2.0 | 7.0 | 0.00 | 0.03 | 0.03 | 65 | 1013.0 |
| 20260505032539 | 51 | 69 | 1.0 | 3.0 | 0.00 | 0.03 | 0.03 | 65 | 1012.9 |
| 20260505031515 | 50 | 117 | 1.0 | 2.0 | 0.00 | 0.03 | 0.03 | 67 | 1012.9 |
| 20260505030532 | 50 | 68 | 1.0 | 3.0 | 0.00 | 0.03 | 0.03 | 67 | 1012.6 |
| 20260505025528 | 51 | 111 | 1.0 | 3.0 | 0.00 | 0.03 | 0.03 | 66 | 1012.4 |
| 20260505024523 | 51 | 59 | 1.0 | 2.0 | 0.00 | 0.03 | 0.03 | 66 | 1012.7 |
| 20260505023519 | 51 | 126 | 1.0 | 2.0 | 0.00 | 0.03 | 0.03 | 66 | 1012.6 |
| 20260505022515 | 51 | 93 | 1.0 | 4.0 | 0.01 | 0.03 | 0.03 | 66 | 1012.5 |
| 20260505021532 | 51 | 31 | 2.0 | 5.0 | 0.01 | 0.03 | 0.03 | 66 | 1012.6 |
| 20260505020528 | 51 | 31 | 3.0 | 8.0 | 0.01 | 0.03 | 0.03 | 67 | 1012.9 |
| 20260505015524 | 50 | 142 | 1.0 | 3.0 | 0.03 | 0.03 | 0.03 | 79 | 1012.6 |
| 20260505014521 | 50 | 158 | 1.0 | 3.0 | 0.03 | 0.03 | 0.03 | 80 | 1012.3 |
| 20260505013556 | 50 | 181 | 1.0 | 5.0 | 0.02 | 0.03 | 0.03 | 75 | 1012.1 |
| 20260505012533 | 50 | 219 | 1.0 | 3.0 | 0.02 | 0.02 | 0.02 | 74 | 1012.4 |
| 20260505011529 | 53 | 194 | 2.0 | 3.0 | 0.02 | 0.02 | 0.02 | 70 | 1012.3 |
| 20260505010525 | 56 | 317 | 2.0 | 5.0 | 0.02 | 0.02 | 0.02 | 57 | 1012.0 |
| 20260505005520 | 57 | 30 | 2.0 | 4.0 | 0.00 | 0.00 | 0.00 | 52 | 1011.5 |
| 20260505004517 | 59 | 358 | 3.0 | 5.0 | 0.00 | 0.00 | 0.00 | 42 | 1010.9 |
| 20260505003532 | 61 | 15 | 3.0 | 7.0 | 0.00 | 0.00 | 0.00 | 37 | 1010.8 |
| 20260505002528 | 62 | 354 | 2.0 | 5.0 | 0.00 | 0.00 | 0.00 | 34 | 1010.3 |
| 20260505001524 | 62 | 57 | 1.0 | 4.0 | 0.00 | 0.00 | 0.00 | 34 | 1010.0 |
| 20260505000519 | 63 | 360 | 3.0 | 9.0 | 0.00 | 0.00 | 0.00 | 34 | 1009.9 |
| 20260504235515 | 63 | 7 | 2.0 | 5.0 | 0.00 | 0.00 | 0.00 | 34 | 1009.6 |
| 20260504234532 | 64 | 78 | 2.0 | 4.0 | 0.00 | 0.00 | 0.00 | 34 | 1009.3 |
| 20260504233527 | 64 | 63 | 3.0 | 6.0 | 0.00 | 0.00 | 0.00 | 35 | 1009.2 |
| 20260504232523 | 64 | 8 | 1.0 | 4.0 | 0.00 | 0.00 | 0.00 | 36 | 1009.3 |
| 20260504231519 | 63 | 25 | 1.0 | 2.0 | 0.00 | 0.00 | 0.00 | 38 | 1009.4 |
| 20260504230535 | 63 | 43 | 0.0 | 2.0 | 0.00 | 0.00 | 0.00 | 41 | 1009.3 |
| 20260504225530 | 63 | 33 | 1.0 | 3.0 | 0.00 | 0.00 | 0.00 | 41 | 1009.5 |
| 20260504224526 | 62 | 118 | 1.0 | 2.0 | 0.00 | 0.00 | 0.00 | 44 | 1009.3 |
| 20260504223522 | 61 | 121 | 1.0 | 2.0 | 0.00 | 0.00 | 0.00 | 44 | 1009.4 |
| 20260504222518 | 61 | 159 | 3.0 | 6.0 | 0.00 | 0.00 | 0.00 | 40 | 1009.6 |
| 20260504221534 | 59 | 143 | 4.0 | 9.0 | 0.00 | 0.00 | 0.00 | 51 | 1009.9 |
| 20260504220530 | 62 | 352 | 2.0 | 8.0 | 0.00 | 0.00 | 0.00 | 40 | 1010.3 |
| 20260504215545 | 63 | 47 | 2.0 | 4.0 | 0.00 | 0.00 | 0.00 | 38 | 1009.6 |
| 20260504214521 | 62 | 32 | 2.0 | 4.0 | 0.00 | 0.00 | 0.00 | 42 | 1009.7 |
| 20260504213517 | 65 | 10 | 2.0 | 5.0 | 0.00 | 0.00 | 0.00 | 40 | 1009.4 |
| 20260504212533 | 67 | 5 | 4.0 | 11.0 | 0.00 | 0.00 | 0.00 | 27 | 1008.9 |
| 20260504211549 | 69 | 15 | 3.0 | 10.0 | 0.00 | 0.00 | 0.00 | 25 | 1008.9 |
| 20260504210524 | 71 | 339 | 1.0 | 2.0 | 0.00 | 0.00 | 0.00 | 24 | 1008.7 |
| 20260504205541 | 71 | 325 | 0.0 | 2.0 | 0.00 | 0.00 | 0.00 | 23 | 1008.6 |
| 20260504204536 | 72 | 352 | 1.0 | 5.0 | 0.00 | 0.00 | 0.00 | 23 | 1008.9 |
| 20260504203532 | 72 | 31 | 2.0 | 6.0 | 0.00 | 0.00 | 0.00 | 24 | 1009.1 |
| 20260504202548 | 71 | 358 | 2.0 | 10.0 | 0.00 | 0.00 | 0.00 | 24 | 1009.3 |
| 20260504201524 | 71 | 9 | 2.0 | 6.0 | 0.00 | 0.00 | 0.00 | 25 | 1009.4 |
| 20260504200520 | 70 | 51 | 3.0 | 7.0 | 0.00 | 0.00 | 0.00 | 24 | 1009.6 |
| 20260504195516 | 72 | 38 | 2.0 | 4.0 | 0.00 | 0.00 | 0.00 | 22 | 1009.7 |
| 20260504194532 | 74 | 192 | 3.0 | 9.0 | 0.00 | 0.00 | 0.00 | 20 | 1009.6 |
| 20260504193528 | 73 | 280 | 1.0 | 4.0 | 0.00 | 0.00 | 0.00 | 21 | 1009.6 |
| 20260504192544 | 75 | 169 | 2.0 | 6.0 | 0.00 | 0.00 | 0.00 | 20 | 1009.6 |
| 20260504191540 | 74 | 214 | 2.0 | 4.0 | 0.00 | 0.00 | 0.00 | 20 | 1009.7 |
| 20260504190517 | 72 | 184 | 1.0 | 4.0 | 0.00 | 0.00 | 0.00 | 21 | 1010.0 |
| 20260504185533 | 76 | 185 | 2.0 | 6.0 | 0.00 | 0.00 | 0.00 | 20 | 1010.1 |
| 20260504184529 | 74 | 298 | 2.0 | 4.0 | 0.00 | 0.00 | 0.00 | 21 | 1010.2 |
| 20260504183525 | 72 | 315 | 2.0 | 6.0 | 0.00 | 0.00 | 0.00 | 20 | 1010.5 |
| 20260504182521 | 70 | 307 | 1.0 | 3.0 | 0.00 | 0.00 | 0.00 | 22 | 1010.7 |
| 20260504181518 | 71 | 162 | 1.0 | 2.0 | 0.00 | 0.00 | 0.00 | 21 | 1010.9 |
| 20260504180533 | 73 | 162 | 2.0 | 5.0 | 0.00 | 0.00 | 0.00 | 19 | 1010.9 |
| 20260504175529 | 71 | 171 | 1.0 | 4.0 | 0.00 | 0.00 | 0.00 | 21 | 1011.1 |
| 20260504174526 | 71 | 16 | 2.0 | 5.0 | 0.00 | 0.00 | 0.00 | 21 | 1011.4 |
| 20260504173522 | 70 | 311 | 2.0 | 5.0 | 0.00 | 0.00 | 0.00 | 22 | 1011.7 |
| 20260504172518 | 69 | 286 | 1.0 | 3.0 | 0.00 | 0.00 | 0.00 | 23 | 1011.8 |
| 20260504171555 | 69 | 276 | 1.0 | 4.0 | 0.00 | 0.00 | 0.00 | 26 | 1011.8 |
| 20260504170530 | 71 | 282 | 2.0 | 6.0 | 0.00 | 0.00 | 0.00 | 26 | 1011.8 |